Hauptseite
METAR-TAF:

METAR-TAF

Flughäfen :

Kairo, Ägypten

Flughafen Kairo

Breite: 30-08N, Länge: 031-24E, Höhe: 64 m

Beobachtung

Neuester Wetterbericht von vor 6 Minuten, um 00:30 UTC
Wind 5 kt aus Nordost
Temperatur 18°C
Luftfeuchtigkeit 68%
Luftdruck 1011 hPa
Sichtweite 10 km oder mehr
Aufgelockert bewölkt in der Höhe von 2500 ft

METAR: HECA 250030Z 05005KT 9999 SCT025 18/12 Q1011 NOSIG

Zeit: 02:36 (00:36 UTC)

Prognose

Neuester Wetterbericht von vor 1 Stunde und 36 Minuten, um 23:00 UTC
Gültige Prognose vom 25 um 00 UTC bis 26 um 06 UTC
Wind 8 kt aus Nord/Nordwest
Sichtweite 10 km oder mehr
Aufgelockert bewölkt in der Höhe von 2500 ft
Zeitweise
vom 25 um 02 UTC bis 25 um 08 UTC
Wind 3 kt aus unterschiedlichen Richtungen
Sichtweite: 4000 m
feuchter Dunst

TAF: HECA 242300Z 2500/2606 33008KT 9999 SCT025 TEMPO 2502/2508 VRB03KT 4000 BR NSC

Wetterbeobachtungen und Prognosen von mehr als 4000 Flughäfen (METAR und TAF Bericht).

Die verfügbaren Stationen werden durch gelbe und rote Markierungen auf der Karte dargestellt.

Führen Sie die Maus auf sie, um den Namen der Station zu sehen.

Darauf klicken, um die Beobachtung von Wetterbeobachtungen und Prognosen zu sehen.

Um die Karte zu ändern : klicken Sie auf den grünen Tasten mit einem schwarzen Kreuz Zum Vergrößern, auf den grünen Button mit einem Gedankenstrich zu verkleinern, oder auf die grünen Pfeile für benachbarte Karten.


METAR-TAF: